Terminal Aerodrome Forecast
Issued by NWS Milwaukee/Sullivan, WI

Home | Current Version | Previous Version | Text Only | Print | Product List | Glossary On
Versions: 1 2 3 4 5 6 7 8 9 10 11 12 13 14 15 16 17 18 19 20 21 22 23 24 25
000
FTUS43 KMKX 240201 AAA
TAFMSN
TAF AMD
KMSN 240201Z 2402/2424 08006KT P6SM VCSH BKN009 OVC015
     FM240400 04005KT P6SM VCSH SCT008 OVC015
     FM240600 04006KT P6SM VCSH OVC008
     FM241600 02008KT P6SM VCSH OVC010
     FM242200 02010KT P6SM BKN010=

USA.gov is the U.S. government's official web portal to all federal, state and local government web resources and services.